Time;durP1;ratioP1;P1;durP2;ratioP2;P2;SDS_P1;SDS_P2;PMS_P1;PMS_P2;Temp;Humidity;BMP_temperature;BMP_pressure;BME280_temperature;BME280_humidity;BME280_pressure;Samples;Min_cycle;Max_cycle;Signal;HPM_P1;HPM_P2
2023/06/24 00:01:35;;;;;;;19.67;4.63;;;;;;;;;;5081620;28;20044;-83
2023/06/24 00:04:20;;;;;;;18.55;4.20;;;;;;;;;;5074400;28;20040;-84
2023/06/24 00:07:06;;;;;;;18.40;4.55;;;;;;;;;;5074630;28;20044;-83
2023/06/24 00:09:52;;;;;;;18.00;4.30;;;;;;;;;;5059286;28;20049;-83
2023/06/24 00:12:39;;;;;;;22.50;5.57;;;;;;;;;;5074553;28;20048;-83
2023/06/24 00:15:24;;;;;;;22.60;5.50;;;;;;;;;;5073974;28;20036;-83
2023/06/24 00:18:10;;;;;;;29.85;5.28;;;;;;;;;;5074110;28;20417;-81
2023/06/24 00:20:56;;;;;;;33.58;5.35;;;;;;;;;;5073926;28;20041;-82
2023/06/24 00:23:43;;;;;;;33.03;6.53;;;;;;;;;;5074142;28;20462;-83
2023/06/24 00:26:28;;;;;;;46.25;6.05;;;;;;;;;;5058848;28;20049;-83
2023/06/24 00:29:15;;;;;;;50.60;5.82;;;;;;;;;;5073387;28;20036;-83
2023/06/24 00:32:00;;;;;;;30.90;5.10;;;;;;;;;;5080466;28;20048;-83
2023/06/24 00:34:47;;;;;;;40.72;6.15;;;;;;;;;;5080666;28;20044;-82
2023/06/24 00:37:33;;;;;;;37.15;6.10;;;;;;;;;;5073734;28;20040;-82
2023/06/24 00:40:19;;;;;;;49.80;7.18;;;;;;;;;;5073659;28;20049;-83
2023/06/24 00:43:05;;;;;;;39.40;7.75;;;;;;;;;;5073804;28;20037;-82
2023/06/24 00:45:50;;;;;;;42.80;8.25;;;;;;;;;;5073604;28;20048;-82
2023/06/24 00:48:35;;;;;;;32.97;8.13;;;;;;;;;;5059835;28;20041;-83
2023/06/24 00:51:26;;;;;;;43.55;8.25;;;;;;;;;;5073545;28;20386;-82
2023/06/24 00:54:11;;;;;;;40.85;7.85;;;;;;;;;;5065447;28;20040;-82
2023/06/24 00:57:02;;;;;;;31.90;8.35;;;;;;;;;;5073585;28;20044;-82
2023/06/24 00:59:47;;;;;;;21.88;7.80;;;;;;;;;;5065026;28;20037;-82
2023/06/24 01:02:32;;;;;;;31.08;8.27;;;;;;;;;;5073688;28;20037;-83
2023/06/24 01:05:23;;;;;;;28.98;8.95;;;;;;;;;;5073337;28;20477;-82
2023/06/24 01:08:09;;;;;;;26.85;8.43;;;;;;;;;;5064884;28;20045;-82
2023/06/24 01:10:54;;;;;;;27.70;8.95;;;;;;;;;;5064977;28;20041;-83
2023/06/24 01:13:40;;;;;;;32.45;8.93;;;;;;;;;;5073472;28;20049;-83
2023/06/24 01:16:37;;;;;;;32.40;8.32;;;;;;;;;;5073434;28;20045;-82
2023/06/24 01:20:00;;;;;;;24.27;8.77;;;;;;;;;;5065211;28;20044;-82
2023/06/24 01:23:07;;;;;;;19.55;7.35;;;;;;;;;;5073691;28;20041;-82
2023/06/24 01:26:20;;;;;;;26.83;6.78;;;;;;;;;;5073340;28;20045;-82
2023/06/24 01:29:51;;;;;;;19.05;6.30;;;;;;;;;;5065122;28;20049;-81
2023/06/24 01:32:55;;;;;;;21.40;7.25;;;;;;;;;;5073450;28;20048;-83
2023/06/24 01:36:58;;;;;;;24.83;7.45;;;;;;;;;;5062361;28;20389;-85
2023/06/24 01:40:54;;;;;;;39.13;8.07;;;;;;;;;;5076056;28;20044;-86
2023/06/24 01:48:39;;;;;;;28.25;7.95;;;;;;;;;;5015025;28;20042;-85
2023/06/24 02:00:19;;;;;;;18.08;6.57;;;;;;;;;;5063500;28;20045;-85
2023/06/24 02:03:46;;;;;;;17.92;7.68;;;;;;;;;;4981971;28;20042;-86
2023/06/24 02:14:57;;;;;;;110.72;70.55;;;;;;;;;;4965294;28;20515;-83
2023/06/24 02:18:09;;;;;;;418.80;336.95;;;;;;;;;;4974361;28;20045;-84
2023/06/24 02:21:12;;;;;;;517.35;429.77;;;;;;;;;;4983307;28;20050;-84
2023/06/24 02:24:19;;;;;;;228.88;187.98;;;;;;;;;;4981791;28;20539;-86
2023/06/24 02:27:08;;;;;;;34.33;14.30;;;;;;;;;;5040172;28;20041;-85
2023/06/24 02:30:00;;;;;;;25.55;11.43;;;;;;;;;;5048276;28;20049;-85
2023/06/24 02:32:45;;;;;;;17.20;7.45;;;;;;;;;;5048121;28;20052;-86
2023/06/24 02:35:31;;;;;;;17.60;6.20;;;;;;;;;;5061984;28;20053;-86
2023/06/24 02:38:22;;;;;;;16.15;7.20;;;;;;;;;;5061537;28;20033;-86
2023/06/24 02:41:15;;;;;;;22.52;9.98;;;;;;;;;;5055117;28;20386;-86
2023/06/24 02:44:01;;;;;;;26.05;11.15;;;;;;;;;;5061623;28;20033;-84
2023/06/24 02:46:51;;;;;;;24.65;10.15;;;;;;;;;;5047474;28;20410;-85
2023/06/24 02:49:38;;;;;;;26.73;11.88;;;;;;;;;;5061475;28;20049;-86
2023/06/24 02:52:28;;;;;;;27.52;11.27;;;;;;;;;;5061425;28;20045;-85
2023/06/24 02:55:17;;;;;;;27.35;9.98;;;;;;;;;;5061637;28;20041;-85
2023/06/24 02:58:10;;;;;;;19.90;7.70;;;;;;;;;;5048709;28;20195;-85
2023/06/24 03:01:08;;;;;;;18.40;6.70;;;;;;;;;;5061590;28;20041;-85
2023/06/24 03:04:22;;;;;;;12.27;6.55;;;;;;;;;;5050947;28;20041;-85
2023/06/24 03:07:10;;;;;;;17.02;6.30;;;;;;;;;;5047457;28;20041;-85
2023/06/24 03:09:56;;;;;;;19.13;6.90;;;;;;;;;;5060977;28;20402;-84
2023/06/24 03:12:41;;;;;;;18.20;7.60;;;;;;;;;;5054177;28;20045;-85
2023/06/24 03:15:28;;;;;;;14.55;6.55;;;;;;;;;;5046928;28;20073;-85
2023/06/24 03:18:16;;;;;;;12.40;6.35;;;;;;;;;;5061356;28;20045;-85
2023/06/24 03:21:12;;;;;;;13.77;6.00;;;;;;;;;;5046743;28;20489;-84
2023/06/24 03:23:59;;;;;;;18.58;6.65;;;;;;;;;;5047348;28;20045;-86
2023/06/24 03:26:46;;;;;;;12.50;6.22;;;;;;;;;;5060638;28;20053;-86
2023/06/24 03:29:34;;;;;;;10.88;6.53;;;;;;;;;;5060536;28;20045;-87
2023/06/24 03:32:30;;;;;;;15.48;6.47;;;;;;;;;;5047514;28;20048;-86
2023/06/24 03:35:16;;;;;;;12.88;6.72;;;;;;;;;;5046432;28;20045;-86
2023/06/24 03:38:03;;;;;;;13.25;6.93;;;;;;;;;;5060696;28;20048;-87
2023/06/24 03:40:55;;;;;;;15.18;6.40;;;;;;;;;;5046888;28;20045;-86
2023/06/24 03:43:46;;;;;;;15.13;6.50;;;;;;;;;;5046652;28;20041;-85
2023/06/24 03:46:33;;;;;;;18.42;6.47;;;;;;;;;;5046422;28;20040;-85
2023/06/24 03:49:19;;;;;;;14.35;6.80;;;;;;;;;;5060163;28;20045;-85
2023/06/24 03:52:08;;;;;;;17.45;7.55;;;;;;;;;;5060445;28;20490;-85
2023/06/24 03:54:54;;;;;;;22.38;7.45;;;;;;;;;;5060032;28;20040;-85
2023/06/24 03:57:40;;;;;;;16.10;6.60;;;;;;;;;;5060046;28;20044;-85
2023/06/24 04:00:25;;;;;;;18.23;7.32;;;;;;;;;;5060299;28;20045;-85
2023/06/24 04:03:40;;;;;;;12.50;6.45;;;;;;;;;;5060293;28;20052;-85
2023/06/24 04:06:31;;;;;;;12.40;7.75;;;;;;;;;;5046713;28;20048;-85
2023/06/24 04:09:17;;;;;;;18.38;7.00;;;;;;;;;;5054245;28;20041;-85
2023/06/24 04:12:09;;;;;;;16.10;7.65;;;;;;;;;;5060053;28;20049;-84
2023/06/24 04:14:57;;;;;;;35.80;17.48;;;;;;;;;;5059815;28;20044;-81
2023/06/24 04:18:05;;;;;;;115.25;48.60;;;;;;;;;;5054829;28;20049;-86
2023/06/24 04:30:29;;;;;;;16.50;7.85;;;;;;;;;;5052580;28;20041;-86
2023/06/24 04:42:20;;;;;;;13.55;6.45;;;;;;;;;;4992233;28;20042;-86
2023/06/24 04:45:58;;;;;;;15.88;6.18;;;;;;;;;;5053082;28;20049;-86
2023/06/24 04:49:59;;;;;;;16.67;6.15;;;;;;;;;;5051838;28;20053;-86
2023/06/24 05:08:36;;;;;;;13.93;6.28;;;;;;;;;;5043840;28;20045;-87
2023/06/24 05:12:23;;;;;;;15.30;6.60;;;;;;;;;;5062998;28;20045;-86
2023/06/24 05:15:34;;;;;;;13.07;7.13;;;;;;;;;;5050663;28;20044;-85
2023/06/24 05:18:23;;;;;;;20.80;6.88;;;;;;;;;;5050303;28;20041;-84
2023/06/24 05:21:08;;;;;;;11.57;6.07;;;;;;;;;;5057528;28;20049;-85
2023/06/24 05:23:57;;;;;;;16.50;5.93;;;;;;;;;;5057001;28;20041;-84
2023/06/24 05:26:45;;;;;;;14.20;5.45;;;;;;;;;;5056787;28;20045;-85
2023/06/24 05:29:33;;;;;;;11.40;5.88;;;;;;;;;;5060942;28;20033;-84
2023/06/24 05:32:20;;;;;;;15.55;5.55;;;;;;;;;;5061404;28;20049;-85
2023/06/24 05:35:40;;;;;;;12.27;5.65;;;;;;;;;;5063094;28;20402;-84
2023/06/24 05:38:30;;;;;;;12.13;5.40;;;;;;;;;;5062896;28;20036;-85
2023/06/24 05:41:16;;;;;;;17.33;5.70;;;;;;;;;;5048992;28;20048;-84
2023/06/24 05:44:06;;;;;;;15.20;6.30;;;;;;;;;;5057065;28;20056;-83
2023/06/24 05:46:53;;;;;;;13.73;5.93;;;;;;;;;;5057085;28;20033;-84
2023/06/24 05:49:38;;;;;;;12.98;5.97;;;;;;;;;;5074146;28;20048;-85
2023/06/24 05:52:24;;;;;;;12.20;6.20;;;;;;;;;;5076711;28;20048;-82
2023/06/24 05:55:09;;;;;;;13.63;5.72;;;;;;;;;;5077241;28;20044;-83
2023/06/24 05:57:55;;;;;;;14.63;5.93;;;;;;;;;;5076881;28;20040;-84
2023/06/24 06:00:40;;;;;;;13.15;6.18;;;;;;;;;;5061903;28;20044;-85
2023/06/24 06:03:26;;;;;;;12.82;6.75;;;;;;;;;;5068441;28;20048;-84
2023/06/24 06:06:11;;;;;;;15.10;6.50;;;;;;;;;;5061391;28;20040;-84
2023/06/24 06:08:59;;;;;;;12.00;6.05;;;;;;;;;;5061405;28;20044;-85
2023/06/24 06:11:44;;;;;;;14.13;7.13;;;;;;;;;;5068777;28;20040;-85
2023/06/24 06:14:30;;;;;;;16.45;6.93;;;;;;;;;;5054362;28;20477;-85
2023/06/24 06:17:16;;;;;;;12.70;6.85;;;;;;;;;;5068830;28;20044;-85
2023/06/24 06:20:01;;;;;;;16.20;8.35;;;;;;;;;;5076049;28;20482;-84
2023/06/24 06:22:51;;;;;;;17.15;7.40;;;;;;;;;;5068254;28;20044;-84
2023/06/24 06:25:37;;;;;;;10.82;6.63;;;;;;;;;;5067836;28;20044;-84
2023/06/24 06:28:23;;;;;;;13.85;6.25;;;;;;;;;;5061166;28;20045;-85
2023/06/24 06:31:09;;;;;;;19.98;7.18;;;;;;;;;;5067756;28;20041;-85
2023/06/24 06:33:54;;;;;;;13.60;6.65;;;;;;;;;;5076383;28;20044;-84
2023/06/24 06:36:40;;;;;;;15.45;7.40;;;;;;;;;;5076537;28;20056;-83
2023/06/24 06:39:25;;;;;;;12.65;6.60;;;;;;;;;;5061485;28;20040;-83
2023/06/24 06:42:11;;;;;;;15.57;6.75;;;;;;;;;;5061075;28;20036;-85
2023/06/24 06:44:56;;;;;;;16.75;6.65;;;;;;;;;;5067670;28;20048;-83
2023/06/24 06:47:42;;;;;;;14.80;6.47;;;;;;;;;;5075461;28;20040;-84
2023/06/24 06:50:28;;;;;;;12.30;6.18;;;;;;;;;;5075652;28;20044;-83
2023/06/24 06:53:14;;;;;;;13.85;6.55;;;;;;;;;;5075644;28;20036;-84
2023/06/24 06:55:59;;;;;;;18.90;6.95;;;;;;;;;;5067287;28;20044;-83
2023/06/24 06:58:45;;;;;;;12.73;6.60;;;;;;;;;;5053262;28;20041;-83
2023/06/24 07:01:30;;;;;;;18.17;6.22;;;;;;;;;;5076198;28;20048;-83
2023/06/24 07:04:15;;;;;;;16.17;6.45;;;;;;;;;;5075761;28;20052;-83
2023/06/24 07:07:02;;;;;;;15.65;5.93;;;;;;;;;;5075435;28;20052;-83
2023/06/24 07:09:48;;;;;;;12.45;5.97;;;;;;;;;;5076132;28;20045;-83
2023/06/24 07:12:34;;;;;;;23.77;6.68;;;;;;;;;;5093714;28;20044;-83
2023/06/24 07:15:19;;;;;;;19.83;7.55;;;;;;;;;;5090161;28;20040;-82
2023/06/24 07:18:05;;;;;;;16.10;6.22;;;;;;;;;;5055637;28;20389;-84
2023/06/24 07:20:53;;;;;;;12.23;6.18;;;;;;;;;;5075507;28;20044;-85
2023/06/24 07:23:39;;;;;;;23.95;7.43;;;;;;;;;;5076097;28;20036;-83
2023/06/24 07:26:25;;;;;;;12.20;6.55;;;;;;;;;;5067366;28;20036;-86
2023/06/24 07:29:11;;;;;;;14.98;6.88;;;;;;;;;;5052980;28;20481;-85
2023/06/24 07:31:56;;;;;;;12.85;6.03;;;;;;;;;;5066104;28;20045;-85
2023/06/24 07:34:42;;;;;;;19.38;6.55;;;;;;;;;;5067535;28;20044;-85
2023/06/24 07:37:27;;;;;;;10.93;6.15;;;;;;;;;;5060671;28;20044;-86
2023/06/24 07:40:14;;;;;;;13.00;6.22;;;;;;;;;;5075531;28;20381;-85
2023/06/24 07:43:00;;;;;;;15.50;5.70;;;;;;;;;;5067126;28;20044;-84
2023/06/24 07:45:52;;;;;;;9.50;5.78;;;;;;;;;;5053694;28;20052;-85
2023/06/24 07:48:39;;;;;;;21.00;6.27;;;;;;;;;;5049490;28;20040;-83
2023/06/24 07:51:25;;;;;;;15.77;6.47;;;;;;;;;;5066250;28;20032;-82
2023/06/24 07:54:10;;;;;;;17.90;6.45;;;;;;;;;;5052967;28;20044;-84
2023/06/24 07:56:56;;;;;;;14.38;6.30;;;;;;;;;;5074720;28;20049;-83
2023/06/24 07:59:45;;;;;;;9.73;5.93;;;;;;;;;;5051928;28;20040;-83
2023/06/24 08:02:31;;;;;;;22.05;6.15;;;;;;;;;;5052050;28;20493;-83
2023/06/24 08:05:18;;;;;;;18.95;6.43;;;;;;;;;;5074062;28;20394;-83
2023/06/24 08:08:07;;;;;;;19.95;7.35;;;;;;;;;;5051663;28;20052;-83
2023/06/24 08:10:53;;;;;;;18.60;6.43;;;;;;;;;;5065831;28;20041;-84
2023/06/24 08:13:39;;;;;;;14.48;6.57;;;;;;;;;;5051809;28;20048;-82
2023/06/24 08:16:24;;;;;;;20.85;7.63;;;;;;;;;;5073886;28;20493;-83
2023/06/24 08:19:15;;;;;;;10.55;6.57;;;;;;;;;;5059381;28;20393;-84
2023/06/24 08:22:02;;;;;;;11.23;5.88;;;;;;;;;;5073863;28;20453;-83
2023/06/24 08:24:48;;;;;;;17.88;6.40;;;;;;;;;;5059742;28;20393;-83
2023/06/24 08:27:34;;;;;;;15.57;6.60;;;;;;;;;;5051167;28;20040;-83
2023/06/24 08:30:19;;;;;;;16.48;6.05;;;;;;;;;;5058615;28;20052;-82
2023/06/24 08:33:04;;;;;;;14.02;6.80;;;;;;;;;;5058904;28;20036;-83
2023/06/24 08:39:00;;;;;;;14.18;6.88;;;;;;;;;;5073495;28;20045;-80
2023/06/24 08:41:46;;;;;;;17.80;7.22;;;;;;;;;;5080499;28;20044;-78
2023/06/24 08:44:31;;;;;;;12.93;6.80;;;;;;;;;;5073981;28;20045;-81
2023/06/24 08:47:18;;;;;;;19.42;8.50;;;;;;;;;;5073437;28;20482;-76
2023/06/24 08:50:13;;;;;;;17.38;7.90;;;;;;;;;;5073443;28;20040;-77
2023/06/24 08:53:02;;;;;;;13.93;8.27;;;;;;;;;;5073638;28;20044;-77
2023/06/24 08:55:53;;;;;;;15.93;8.50;;;;;;;;;;5080237;28;20052;-77
2023/06/24 08:58:39;;;;;;;16.15;8.18;;;;;;;;;;5073311;28;20052;-75
2023/06/24 09:01:27;;;;;;;15.32;8.40;;;;;;;;;;5073185;28;20469;-76
2023/06/24 09:04:12;;;;;;;21.75;9.63;;;;;;;;;;5073387;28;20037;-77
2023/06/24 09:06:58;;;;;;;21.73;8.90;;;;;;;;;;5073273;28;20044;-78
2023/06/24 09:09:44;;;;;;;28.80;9.40;;;;;;;;;;5072964;28;20049;-78
2023/06/24 09:12:32;;;;;;;21.88;9.85;;;;;;;;;;5079751;28;20040;-77
2023/06/24 09:15:20;;;;;;;18.38;10.05;;;;;;;;;;5064694;28;20048;-77
2023/06/24 09:18:05;;;;;;;21.13;9.77;;;;;;;;;;5073238;28;20054;-77
2023/06/24 09:20:50;;;;;;;26.88;10.27;;;;;;;;;;5073259;28;20044;-76
2023/06/24 09:23:37;;;;;;;23.05;10.30;;;;;;;;;;5073282;28;20481;-75
2023/06/24 09:26:26;;;;;;;17.63;9.25;;;;;;;;;;5079938;28;20036;-76
2023/06/24 09:29:14;;;;;;;19.90;10.88;;;;;;;;;;5079761;28;20036;-76
2023/06/24 09:32:04;;;;;;;22.67;11.77;;;;;;;;;;5070989;28;20048;-75
2023/06/24 09:34:49;;;;;;;30.85;12.85;;;;;;;;;;5072513;28;20048;-75
2023/06/24 09:37:35;;;;;;;26.02;13.70;;;;;;;;;;5079654;28;20044;-77
2023/06/24 09:40:23;;;;;;;27.27;12.70;;;;;;;;;;5072984;28;20040;-78
2023/06/24 09:43:20;;;;;;;23.90;12.00;;;;;;;;;;5072163;28;20048;-82
2023/06/24 09:46:06;;;;;;;23.83;13.57;;;;;;;;;;5080467;28;20036;-80
2023/06/24 09:48:51;;;;;;;33.30;14.68;;;;;;;;;;5072866;28;20064;-81
2023/06/24 09:51:43;;;;;;;32.08;14.82;;;;;;;;;;5079794;28;20048;-76
2023/06/24 09:54:29;;;;;;;22.85;13.52;;;;;;;;;;5072857;28;20048;-78
2023/06/24 09:57:16;;;;;;;24.77;14.13;;;;;;;;;;5075825;28;20045;-78
2023/06/24 10:00:03;;;;;;;21.85;14.18;;;;;;;;;;5076748;28;20058;-80
2023/06/24 10:02:53;;;;;;;31.13;15.30;;;;;;;;;;5075270;28;20044;-79
2023/06/24 10:05:40;;;;;;;28.83;17.05;;;;;;;;;;5081658;28;20048;-80
2023/06/24 10:08:28;;;;;;;27.08;16.20;;;;;;;;;;5080808;28;20044;-79
2023/06/24 10:11:14;;;;;;;23.75;16.35;;;;;;;;;;5074936;28;20623;-79
2023/06/24 10:13:59;;;;;;;23.52;15.55;;;;;;;;;;5075409;28;20044;-75
2023/06/24 10:16:45;;;;;;;28.05;16.42;;;;;;;;;;5074939;28;20052;-79
2023/06/24 10:19:41;;;;;;;29.52;17.40;;;;;;;;;;5076101;28;20052;-78
2023/06/24 10:22:30;;;;;;;25.88;15.80;;;;;;;;;;5082564;28;20398;-78
2023/06/24 10:25:15;;;;;;;18.30;12.40;;;;;;;;;;5075997;28;20028;-78
2023/06/24 10:28:00;;;;;;;18.02;11.40;;;;;;;;;;5076175;28;20044;-78
2023/06/24 10:30:56;;;;;;;18.60;11.38;;;;;;;;;;5076035;28;20037;-79
2023/06/24 10:33:41;;;;;;;17.55;11.68;;;;;;;;;;5075455;28;20048;-80
2023/06/24 10:36:31;;;;;;;20.95;10.75;;;;;;;;;;5075593;28;20401;-79
2023/06/24 10:39:42;;;;;;;19.77;11.52;;;;;;;;;;5075765;28;20040;-77
2023/06/24 10:42:37;;;;;;;18.83;11.50;;;;;;;;;;5075751;28;20049;-77
2023/06/24 10:45:23;;;;;;;24.42;13.77;;;;;;;;;;5075144;28;20040;-77
2023/06/24 10:48:08;;;;;;;24.35;14.75;;;;;;;;;;5075312;28;20045;-79
2023/06/24 10:50:54;;;;;;;28.30;17.38;;;;;;;;;;5082012;28;20033;-79
2023/06/24 10:53:39;;;;;;;29.27;18.83;;;;;;;;;;5075127;28;20044;-77
2023/06/24 10:56:30;;;;;;;26.42;19.73;;;;;;;;;;5081910;28;20037;-79
2023/06/24 10:59:15;;;;;;;29.35;21.08;;;;;;;;;;5074964;28;20048;-78
2023/06/24 11:02:01;;;;;;;29.20;22.15;;;;;;;;;;5075321;28;20040;-78
2023/06/24 11:05:06;;;;;;;44.20;23.23;;;;;;;;;;5075613;28;20052;-78
2023/06/24 11:07:52;;;;;;;30.65;23.13;;;;;;;;;;5075035;28;20040;-77
2023/06/24 11:10:45;;;;;;;33.28;25.25;;;;;;;;;;5074768;28;20040;-77
2023/06/24 11:13:33;;;;;;;30.65;24.52;;;;;;;;;;5074984;28;20048;-75
2023/06/24 11:16:22;;;;;;;34.33;24.27;;;;;;;;;;5074538;28;20049;-76
2023/06/24 11:19:08;;;;;;;35.25;22.85;;;;;;;;;;5075126;28;20389;-76
2023/06/24 11:21:53;;;;;;;36.80;25.42;;;;;;;;;;5074481;28;20044;-75
2023/06/24 11:24:39;;;;;;;41.58;25.80;;;;;;;;;;5075047;28;20041;-75
2023/06/24 11:27:28;;;;;;;37.03;27.38;;;;;;;;;;5074796;28;20036;-77
2023/06/24 11:30:16;;;;;;;34.20;23.88;;;;;;;;;;5066255;28;20040;-75
2023/06/24 11:33:02;;;;;;;28.92;22.35;;;;;;;;;;5074837;28;20401;-75
2023/06/24 11:35:47;;;;;;;32.92;25.48;;;;;;;;;;5074310;28;20040;-76
2023/06/24 11:38:32;;;;;;;40.72;25.70;;;;;;;;;;5081596;28;20048;-75
2023/06/24 11:41:21;;;;;;;35.40;25.35;;;;;;;;;;5074553;28;20040;-77
2023/06/24 11:44:07;;;;;;;36.13;26.30;;;;;;;;;;5075088;28;20056;-78
2023/06/24 11:46:52;;;;;;;32.72;25.20;;;;;;;;;;5074337;28;20044;-75
2023/06/24 11:49:54;;;;;;;34.22;26.80;;;;;;;;;;5075273;28;20049;-79
2023/06/24 11:52:44;;;;;;;34.03;26.42;;;;;;;;;;5081219;28;20044;-75
2023/06/24 11:55:31;;;;;;;36.92;26.25;;;;;;;;;;5074142;28;20393;-75
2023/06/24 11:58:19;;;;;;;40.00;29.02;;;;;;;;;;5074391;28;20115;-75
2023/06/24 12:01:14;;;;;;;42.33;30.70;;;;;;;;;;5074375;28;20040;-78
2023/06/24 12:04:01;;;;;;;35.33;29.58;;;;;;;;;;5059048;28;20048;-75
2023/06/24 12:06:46;;;;;;;37.75;29.52;;;;;;;;;;5074263;28;20041;-76
2023/06/24 12:09:33;;;;;;;37.03;30.17;;;;;;;;;;5080798;28;20074;-77
2023/06/24 12:12:17;;;;;;;47.13;35.35;;;;;;;;;;5073810;28;20048;-77
2023/06/24 12:15:03;;;;;;;37.63;30.30;;;;;;;;;;5073809;28;20044;-75
2023/06/24 12:17:48;;;;;;;40.95;30.05;;;;;;;;;;5073398;28;20048;-77
2023/06/24 12:20:36;;;;;;;45.70;33.00;;;;;;;;;;5075524;28;20044;-80
2023/06/24 12:23:21;;;;;;;47.40;34.55;;;;;;;;;;5078825;28;20040;-79
2023/06/24 12:26:06;;;;;;;38.88;31.20;;;;;;;;;;5066473;28;20052;-79
2023/06/24 12:28:58;;;;;;;36.03;25.52;;;;;;;;;;5074504;28;20044;-79
2023/06/24 12:31:44;;;;;;;26.60;22.40;;;;;;;;;;5074041;28;20033;-78
2023/06/24 12:34:29;;;;;;;29.58;22.42;;;;;;;;;;5074252;28;20057;-79
2023/06/24 12:37:15;;;;;;;25.90;20.40;;;;;;;;;;5074417;28;20036;-81
2023/06/24 12:40:00;;;;;;;26.08;20.42;;;;;;;;;;5074162;28;20036;-76
2023/06/24 12:42:46;;;;;;;25.70;22.02;;;;;;;;;;5073713;28;20036;-77
2023/06/24 12:45:31;;;;;;;23.35;20.45;;;;;;;;;;5073761;28;20052;-77
2023/06/24 12:48:17;;;;;;;28.38;22.17;;;;;;;;;;5077985;28;20040;-76
2023/06/24 12:51:03;;;;;;;32.00;24.15;;;;;;;;;;5073235;28;20041;-77
2023/06/24 12:53:49;;;;;;;27.83;22.63;;;;;;;;;;5073570;28;20040;-77
2023/06/24 12:56:34;;;;;;;36.50;24.98;;;;;;;;;;5073588;28;20041;-77
2023/06/24 12:59:19;;;;;;;26.60;21.70;;;;;;;;;;5073208;28;20056;-76
2023/06/24 13:02:06;;;;;;;24.88;20.42;;;;;;;;;;5073275;28;20053;-78
2023/06/24 13:04:50;;;;;;;47.30;28.35;;;;;;;;;;5073771;28;20040;-77
2023/06/24 13:07:41;;;;;;;26.13;20.60;;;;;;;;;;5073747;28;20463;-77
2023/06/24 13:10:27;;;;;;;25.25;20.17;;;;;;;;;;5079925;28;20041;-78
2023/06/24 13:13:13;;;;;;;34.30;25.42;;;;;;;;;;5073197;28;20040;-77
2023/06/24 13:15:59;;;;;;;32.55;24.67;;;;;;;;;;5073466;28;20041;-77
2023/06/24 13:18:44;;;;;;;35.60;26.13;;;;;;;;;;5072985;28;20049;-77
2023/06/24 13:21:30;;;;;;;36.17;26.63;;;;;;;;;;5073523;28;20040;-78
2023/06/24 13:24:18;;;;;;;34.72;24.58;;;;;;;;;;5073107;28;20044;-78
2023/06/24 13:27:03;;;;;;;32.78;24.27;;;;;;;;;;5079589;28;20481;-78
2023/06/24 13:29:49;;;;;;;25.92;21.80;;;;;;;;;;5080426;28;20048;-78
2023/06/24 13:32:35;;;;;;;30.38;21.73;;;;;;;;;;5083334;28;20048;-78
2023/06/24 13:35:21;;;;;;;24.52;20.08;;;;;;;;;;5083787;28;20048;-77
2023/06/24 13:38:07;;;;;;;22.65;18.65;;;;;;;;;;5076850;28;20044;-78
2023/06/24 13:40:52;;;;;;;25.00;18.55;;;;;;;;;;5076816;28;20040;-77
2023/06/24 13:43:38;;;;;;;20.80;17.80;;;;;;;;;;5076996;28;20052;-77
2023/06/24 13:46:23;;;;;;;34.38;19.27;;;;;;;;;;5076822;28;20389;-77
2023/06/24 13:49:10;;;;;;;22.48;18.98;;;;;;;;;;5076210;28;20045;-76
2023/06/24 13:51:56;;;;;;;25.20;17.60;;;;;;;;;;5082789;28;20037;-76
2023/06/24 13:54:41;;;;;;;19.02;16.33;;;;;;;;;;5076393;28;20421;-78
2023/06/24 13:57:27;;;;;;;23.23;17.58;;;;;;;;;;5076527;28;20048;-78
2023/06/24 14:00:13;;;;;;;21.98;16.05;;;;;;;;;;5076319;28;20470;-77
2023/06/24 14:02:58;;;;;;;21.85;15.32;;;;;;;;;;5074973;28;20040;-77
2023/06/24 14:05:43;;;;;;;19.10;15.70;;;;;;;;;;5075629;28;20045;-80
2023/06/24 14:08:30;;;;;;;26.33;17.77;;;;;;;;;;5075446;28;20045;-80
2023/06/24 14:11:15;;;;;;;29.58;18.77;;;;;;;;;;5075546;28;20045;-80
2023/06/24 14:14:00;;;;;;;35.85;20.60;;;;;;;;;;5075846;28;20048;-81
2023/06/24 14:16:46;;;;;;;24.40;16.08;;;;;;;;;;5060446;28;20044;-79
2023/06/24 14:19:31;;;;;;;24.98;16.85;;;;;;;;;;5075355;28;20397;-81
2023/06/24 14:22:17;;;;;;;23.30;15.52;;;;;;;;;;5059677;28;20036;-80
2023/06/24 14:25:03;;;;;;;25.52;16.08;;;;;;;;;;5082590;28;20037;-77
2023/06/24 14:27:48;;;;;;;22.38;16.85;;;;;;;;;;5075207;28;20397;-78
2023/06/24 14:30:34;;;;;;;21.02;15.13;;;;;;;;;;5075819;28;20140;-77
2023/06/24 14:33:20;;;;;;;19.55;15.48;;;;;;;;;;5075869;28;20041;-76
2023/06/24 14:36:06;;;;;;;25.45;17.10;;;;;;;;;;5060379;28;20044;-76
2023/06/24 14:38:51;;;;;;;23.08;15.80;;;;;;;;;;5082338;28;20044;-78
2023/06/24 14:41:37;;;;;;;25.92;15.77;;;;;;;;;;5075524;28;20040;-77
2023/06/24 14:44:25;;;;;;;20.95;15.65;;;;;;;;;;5067118;28;20049;-76
2023/06/24 14:47:12;;;;;;;20.73;16.23;;;;;;;;;;5075644;28;20401;-76
2023/06/24 14:49:58;;;;;;;24.50;17.63;;;;;;;;;;5073171;28;20048;-76
2023/06/24 14:52:43;;;;;;;18.58;16.50;;;;;;;;;;5080620;28;20040;-78
2023/06/24 14:55:29;;;;;;;21.80;14.90;;;;;;;;;;5082550;28;20389;-76
2023/06/24 14:58:14;;;;;;;23.98;17.15;;;;;;;;;;5074199;28;20478;-77
2023/06/24 15:01:00;;;;;;;26.33;17.15;;;;;;;;;;5075336;28;20493;-76
2023/06/24 15:03:46;;;;;;;22.55;16.48;;;;;;;;;;5081975;28;20420;-76
2023/06/24 15:06:32;;;;;;;22.00;16.50;;;;;;;;;;5082035;28;20044;-77
2023/06/24 15:09:18;;;;;;;24.65;17.10;;;;;;;;;;5075406;28;20044;-78
2023/06/24 15:12:03;;;;;;;23.10;17.83;;;;;;;;;;5074852;28;20044;-78
2023/06/24 15:14:49;;;;;;;30.98;17.75;;;;;;;;;;5075487;28;20044;-76
2023/06/24 15:17:39;;;;;;;20.50;17.17;;;;;;;;;;5081640;28;20033;-79
2023/06/24 15:20:24;;;;;;;24.88;17.23;;;;;;;;;;5081825;28;20048;-79
2023/06/24 15:23:12;;;;;;;21.83;16.45;;;;;;;;;;5066334;28;20402;-78
2023/06/24 15:25:57;;;;;;;25.00;17.75;;;;;;;;;;5066270;28;20044;-79
2023/06/24 15:28:43;;;;;;;24.02;18.13;;;;;;;;;;5074841;28;20044;-78
2023/06/24 15:31:28;;;;;;;22.50;18.33;;;;;;;;;;5081644;28;20048;-78
2023/06/24 15:34:14;;;;;;;29.63;18.67;;;;;;;;;;5081092;28;20032;-79
2023/06/24 15:37:00;;;;;;;29.42;18.63;;;;;;;;;;5074631;28;20040;-78
2023/06/24 15:39:45;;;;;;;27.15;19.33;;;;;;;;;;5074487;28;20041;-76
2023/06/24 15:42:31;;;;;;;29.17;20.60;;;;;;;;;;5074250;28;20041;-76
2023/06/24 15:45:16;;;;;;;25.88;20.60;;;;;;;;;;5074480;28;20040;-76
2023/06/24 15:48:02;;;;;;;29.73;21.65;;;;;;;;;;5073999;28;20053;-76
2023/06/24 15:50:47;;;;;;;26.10;18.38;;;;;;;;;;5081052;28;20486;-76
2023/06/24 15:53:34;;;;;;;27.10;20.63;;;;;;;;;;5058360;28;20037;-77
2023/06/24 15:56:19;;;;;;;21.65;18.52;;;;;;;;;;5074522;28;20393;-79
2023/06/24 15:59:04;;;;;;;30.35;22.13;;;;;;;;;;5074126;28;20486;-78
2023/06/24 16:01:50;;;;;;;31.52;23.13;;;;;;;;;;5073420;28;20410;-78
2023/06/24 16:04:35;;;;;;;35.22;26.50;;;;;;;;;;5074122;28;20040;-79
2023/06/24 16:07:21;;;;;;;35.35;26.20;;;;;;;;;;5073729;28;20048;-76
2023/06/24 16:10:07;;;;;;;44.00;27.33;;;;;;;;;;5074220;28;20498;-76
2023/06/24 16:12:54;;;;;;;37.63;26.38;;;;;;;;;;5080536;28;20048;-77
2023/06/24 16:15:40;;;;;;;41.00;28.02;;;;;;;;;;5073831;28;20045;-78
2023/06/24 16:18:25;;;;;;;40.67;29.77;;;;;;;;;;5080486;28;20052;-79
2023/06/24 16:21:11;;;;;;;35.78;28.00;;;;;;;;;;5073727;28;20033;-80
2023/06/24 16:23:56;;;;;;;38.92;26.75;;;;;;;;;;5073679;28;20033;-80
2023/06/24 16:26:42;;;;;;;32.92;25.13;;;;;;;;;;5081193;28;20373;-79
2023/06/24 16:29:28;;;;;;;38.15;24.00;;;;;;;;;;5074011;28;20478;-78
2023/06/24 16:32:13;;;;;;;33.17;23.98;;;;;;;;;;5080040;28;20393;-78
2023/06/24 16:34:59;;;;;;;33.40;24.42;;;;;;;;;;5073784;28;20052;-77
2023/06/24 16:37:44;;;;;;;36.90;26.48;;;;;;;;;;5073376;28;20040;-75
2023/06/24 16:40:29;;;;;;;38.80;26.40;;;;;;;;;;5080375;28;20048;-76
2023/06/24 16:43:14;;;;;;;35.60;27.75;;;;;;;;;;5073196;28;20048;-75
2023/06/24 16:46:01;;;;;;;44.38;30.38;;;;;;;;;;5073493;28;20449;-75
2023/06/24 16:48:46;;;;;;;39.70;27.63;;;;;;;;;;5073058;28;20057;-75
2023/06/24 16:51:32;;;;;;;35.50;26.70;;;;;;;;;;5073103;28;20045;-77
2023/06/24 16:54:17;;;;;;;34.05;24.27;;;;;;;;;;5073385;28;20040;-76
2023/06/24 16:57:03;;;;;;;34.13;25.98;;;;;;;;;;5073114;28;20132;-75
2023/06/24 16:59:48;;;;;;;29.92;24.35;;;;;;;;;;5079906;28;20044;-76
2023/06/24 17:02:34;;;;;;;31.48;25.60;;;;;;;;;;5073444;28;20033;-78
2023/06/24 17:05:19;;;;;;;30.48;23.30;;;;;;;;;;5076357;28;20044;-78
2023/06/24 17:08:08;;;;;;;31.60;23.92;;;;;;;;;;5077359;28;20036;-77
2023/06/24 17:10:54;;;;;;;30.42;23.17;;;;;;;;;;5077306;28;20041;-78
2023/06/24 17:13:39;;;;;;;27.42;22.77;;;;;;;;;;5077436;28;20393;-79
2023/06/24 17:16:25;;;;;;;30.42;22.48;;;;;;;;;;5077356;28;20054;-78
2023/06/24 17:19:10;;;;;;;28.45;23.02;;;;;;;;;;5083924;28;20393;-78
2023/06/24 17:21:56;;;;;;;32.65;22.50;;;;;;;;;;5077325;28;20048;-76
2023/06/24 17:24:42;;;;;;;31.92;23.92;;;;;;;;;;5083274;28;20037;-75
2023/06/24 17:27:27;;;;;;;29.23;22.65;;;;;;;;;;5076482;28;20056;-76
2023/06/24 17:30:13;;;;;;;33.72;23.65;;;;;;;;;;5076955;28;20045;-77